createdAt,value
2022-12-17T00:01:57.898Z,52.60
2022-12-17T00:04:43.406Z,57.50
2022-12-17T00:07:28.871Z,60.90
2022-12-17T00:10:14.424Z,52.50
2022-12-17T00:12:59.944Z,49.53
2022-12-17T00:15:45.267Z,52.93
2022-12-17T00:18:31.021Z,57.70
2022-12-17T00:21:19.115Z,52.67
2022-12-17T00:24:04.977Z,55.77
2022-12-17T00:26:50.786Z,54.17
2022-12-17T00:29:37.587Z,60.13
2022-12-17T00:32:23.665Z,56.90
2022-12-17T00:35:09.150Z,54.10
2022-12-17T00:37:55.313Z,59.97
2022-12-17T00:40:52.593Z,62.93
2022-12-17T00:43:39.526Z,53.43
2022-12-17T00:46:24.996Z,51.60
2022-12-17T00:49:10.552Z,54.17
2022-12-17T00:51:55.816Z,53.27
2022-12-17T00:54:55.143Z,58.13
2022-12-17T00:57:41.766Z,61.67
2022-12-17T01:00:28.100Z,56.67
2022-12-17T01:03:22.024Z,57.60
2022-12-17T01:06:07.310Z,62.33
2022-12-17T01:08:52.573Z,62.23
2022-12-17T01:11:37.808Z,61.00
2022-12-17T01:14:23.531Z,59.97
2022-12-17T01:17:09.110Z,57.10
2022-12-17T01:19:54.489Z,60.80
2022-12-17T01:22:41.658Z,60.27
2022-12-17T01:25:27.290Z,60.43
2022-12-17T01:28:12.672Z,57.63
2022-12-17T01:30:57.836Z,59.93
2022-12-17T01:33:43.114Z,57.03
2022-12-17T01:36:29.157Z,59.40
2022-12-17T01:39:14.578Z,62.33
2022-12-17T01:42:00.423Z,61.40
2022-12-17T01:45:03.825Z,65.63
2022-12-17T01:47:53.542Z,58.57
2022-12-17T01:50:45.849Z,66.90
2022-12-17T01:53:33.390Z,61.53
2022-12-17T01:56:19.621Z,63.57
2022-12-17T01:59:09.317Z,61.70
2022-12-17T02:01:54.750Z,62.30
2022-12-17T02:04:40.543Z,57.77
2022-12-17T02:07:43.473Z,62.37
2022-12-17T02:10:45.405Z,57.80
2022-12-17T02:13:39.629Z,56.00
2022-12-17T02:16:36.245Z,55.37
2022-12-17T02:19:47.419Z,56.67
2022-12-17T02:23:14.187Z,56.57
2022-12-17T02:26:36.660Z,59.97
2022-12-17T02:29:23.751Z,54.87
2022-12-17T02:32:10.350Z,55.97
2022-12-17T02:35:04.129Z,54.13
2022-12-17T02:37:49.393Z,53.43
2022-12-17T02:40:36.678Z,55.10
2022-12-17T02:43:22.567Z,58.47
2022-12-17T02:46:09.465Z,49.07
2022-12-17T02:48:55.262Z,57.97
2022-12-17T02:51:43.691Z,52.57
2022-12-17T02:54:28.942Z,55.23
2022-12-17T02:57:14.629Z,55.43
2022-12-17T02:59:59.956Z,52.50
2022-12-17T03:02:45.420Z,60.37
2022-12-17T03:05:46.526Z,54.73
2022-12-17T03:08:32.486Z,53.33
2022-12-17T03:11:19.115Z,52.70
2022-12-17T03:14:04.630Z,51.50
2022-12-17T03:16:50.509Z,54.73
2022-12-17T03:19:35.788Z,52.80
2022-12-17T03:22:20.973Z,54.63
2022-12-17T03:25:06.577Z,60.63
2022-12-17T03:27:54.877Z,50.80
2022-12-17T03:30:43.237Z,57.00
2022-12-17T03:33:32.777Z,48.20
2022-12-17T03:36:18.621Z,57.47
2022-12-17T03:39:03.807Z,54.30
2022-12-17T03:41:49.447Z,58.17
2022-12-17T03:44:35.732Z,53.77
2022-12-17T03:47:20.878Z,60.37
2022-12-17T03:50:06.431Z,57.47
2022-12-17T03:52:51.845Z,54.07
2022-12-17T03:55:36.964Z,56.23
2022-12-17T03:58:22.455Z,57.20
2022-12-17T04:01:07.997Z,53.67
2022-12-17T04:03:53.617Z,57.60
2022-12-17T04:06:38.903Z,58.10
2022-12-17T04:09:24.201Z,56.20
2022-12-17T04:12:09.526Z,54.53
2022-12-17T04:15:12.218Z,60.43
2022-12-17T04:17:57.655Z,54.20
2022-12-17T04:20:43.204Z,57.23
2022-12-17T04:23:28.624Z,52.67
2022-12-17T04:26:14.041Z,55.57
2022-12-17T04:28:59.303Z,51.60
2022-12-17T04:31:45.633Z,55.63
2022-12-17T04:34:30.829Z,54.70
2022-12-17T04:37:16.543Z,60.00
2022-12-17T04:40:01.761Z,60.03
2022-12-17T04:42:47.222Z,53.70
2022-12-17T04:45:32.824Z,55.03
2022-12-17T04:48:25.881Z,54.83
2022-12-17T04:51:11.146Z,53.37
2022-12-17T04:53:56.734Z,61.47
2022-12-17T04:56:41.914Z,55.53
2022-12-17T04:59:27.146Z,57.63
2022-12-17T05:02:12.712Z,62.10
2022-12-17T05:04:58.340Z,61.60
2022-12-17T05:07:43.906Z,55.03
2022-12-17T05:10:49.166Z,62.50
2022-12-17T05:13:34.757Z,57.07
2022-12-17T05:16:20.596Z,56.90
2022-12-17T05:19:06.076Z,61.20
2022-12-17T05:21:51.498Z,57.97
2022-12-17T05:24:39.864Z,62.77
2022-12-17T05:27:25.361Z,66.13
2022-12-17T05:30:10.900Z,65.17
2022-12-17T05:32:56.584Z,64.40
2022-12-17T05:35:41.848Z,65.57
2022-12-17T05:38:29.176Z,61.23
2022-12-17T05:41:18.810Z,65.10
2022-12-17T05:44:06.932Z,60.70
2022-12-17T05:46:54.155Z,62.70
2022-12-17T05:49:39.773Z,65.67
2022-12-17T05:52:25.008Z,62.93
2022-12-17T05:55:10.720Z,62.40
2022-12-17T05:57:56.755Z,65.23
2022-12-17T06:00:42.575Z,55.57
2022-12-17T06:03:34.485Z,64.17
2022-12-17T06:06:20.380Z,58.97
2022-12-17T06:09:05.653Z,63.60
2022-12-17T06:11:51.381Z,61.00
2022-12-17T06:14:36.745Z,64.57
2022-12-17T06:17:21.974Z,59.67
2022-12-17T06:20:07.440Z,64.50
2022-12-17T06:22:52.753Z,61.53
2022-12-17T06:25:38.019Z,60.27
2022-12-17T06:28:23.511Z,69.37
2022-12-17T06:31:13.300Z,68.90
2022-12-17T06:33:59.539Z,59.93
2022-12-17T06:36:45.441Z,65.07
2022-12-17T06:39:30.608Z,62.37
2022-12-17T06:42:16.275Z,60.97
2022-12-17T06:45:01.564Z,60.23
2022-12-17T06:47:47.093Z,63.03
2022-12-17T06:50:32.623Z,63.03
2022-12-17T06:53:19.624Z,67.70
2022-12-17T06:56:05.167Z,59.73
2022-12-17T06:58:50.894Z,65.97
2022-12-17T07:01:36.424Z,59.63
2022-12-17T07:04:22.638Z,67.57
2022-12-17T07:07:11.349Z,66.97
2022-12-17T07:09:57.275Z,66.10
2022-12-17T07:12:42.908Z,60.23
2022-12-17T07:15:28.704Z,66.47
2022-12-17T07:18:19.504Z,60.07
2022-12-17T07:21:08.348Z,68.53
2022-12-17T07:23:53.721Z,67.60
2022-12-17T07:26:38.990Z,65.03
2022-12-17T07:29:24.464Z,66.17
2022-12-17T07:32:10.032Z,64.97
2022-12-17T07:34:55.754Z,69.60
2022-12-17T07:37:41.446Z,64.33
2022-12-17T07:40:27.589Z,72.47
2022-12-17T07:43:12.989Z,75.70
2022-12-17T07:45:58.549Z,76.87
2022-12-17T07:48:44.144Z,74.63
2022-12-17T07:51:29.720Z,72.83
2022-12-17T07:54:15.046Z,68.00
2022-12-17T07:57:00.470Z,68.50
2022-12-17T07:59:45.953Z,69.60
2022-12-17T08:02:31.552Z,64.97
2022-12-17T08:05:17.294Z,69.33
2022-12-17T08:08:02.733Z,71.70
2022-12-17T08:10:48.507Z,64.80
2022-12-17T08:13:33.952Z,71.03
2022-12-17T08:16:19.439Z,69.53
2022-12-17T08:19:09.375Z,67.67
2022-12-17T08:22:00.290Z,69.90
2022-12-17T08:24:45.553Z,69.93
2022-12-17T08:27:30.672Z,75.07
2022-12-17T08:30:16.282Z,83.33
2022-12-17T08:33:01.726Z,64.77
2022-12-17T08:35:47.271Z,72.20
2022-12-17T08:38:32.801Z,75.13
2022-12-17T08:41:21.596Z,72.23
2022-12-17T08:44:06.996Z,77.43
2022-12-17T08:46:52.423Z,70.57
2022-12-17T08:49:37.763Z,71.00
2022-12-17T08:52:23.227Z,78.43
2022-12-17T08:55:08.808Z,72.63
2022-12-17T08:57:54.140Z,81.10
2022-12-17T09:00:42.324Z,77.27
2022-12-17T09:03:27.993Z,72.90
2022-12-17T09:06:13.767Z,72.50
2022-12-17T09:08:59.550Z,71.77
2022-12-17T09:11:45.351Z,63.23
2022-12-17T09:14:30.664Z,58.27
2022-12-17T09:17:15.946Z,66.83
2022-12-17T09:20:01.589Z,66.33
2022-12-17T09:22:46.904Z,71.40
2022-12-17T09:25:32.162Z,72.17
2022-12-17T09:28:20.975Z,63.90
2022-12-17T09:31:06.689Z,70.77
2022-12-17T09:33:52.252Z,65.67
2022-12-17T09:36:40.554Z,78.70
2022-12-17T09:39:25.921Z,71.23
2022-12-17T09:42:37.684Z,74.47
2022-12-17T09:45:37.352Z,77.40
2022-12-17T09:49:14.479Z,64.57
2022-12-17T09:51:59.702Z,63.30
2022-12-17T09:55:01.125Z,69.33
2022-12-17T09:57:51.777Z,64.57
2022-12-17T10:00:46.410Z,67.13
2022-12-17T10:03:41.317Z,64.37
2022-12-17T10:06:35.123Z,72.37
2022-12-17T10:09:33.013Z,76.10
2022-12-17T10:12:47.986Z,70.97
2022-12-17T10:15:33.907Z,67.93
2022-12-17T10:18:29.772Z,71.57
2022-12-17T10:21:25.332Z,70.90
2022-12-17T10:24:22.734Z,77.90
2022-12-17T10:27:08.078Z,79.73
2022-12-17T10:29:53.642Z,77.37
2022-12-17T10:32:52.843Z,74.23
2022-12-17T10:35:53.843Z,73.93
2022-12-17T10:38:48.780Z,69.97
2022-12-17T10:41:48.846Z,73.30
2022-12-17T10:44:54.312Z,74.87
2022-12-17T10:47:46.765Z,69.80
2022-12-17T10:50:41.230Z,67.00
2022-12-17T10:53:43.677Z,68.67
2022-12-17T10:56:45.372Z,72.13
2022-12-17T10:59:32.790Z,68.67
2022-12-17T11:02:18.381Z,70.73
2022-12-17T11:05:11.791Z,74.13
2022-12-17T11:08:02.236Z,81.30
2022-12-17T11:10:58.258Z,71.03
2022-12-17T11:14:05.025Z,69.13
2022-12-17T11:17:03.328Z,79.63
2022-12-17T11:20:10.215Z,68.20
2022-12-17T11:23:14.516Z,71.40
2022-12-17T11:26:11.424Z,69.40
2022-12-17T11:28:57.369Z,73.17
2022-12-17T11:32:22.054Z,66.57
2022-12-17T11:35:22.434Z,76.03
2022-12-17T11:38:33.335Z,74.17
2022-12-17T11:41:27.962Z,69.27
2022-12-17T11:44:44.679Z,71.50
2022-12-17T11:48:05.877Z,72.83
2022-12-17T11:51:19.886Z,84.10
2022-12-17T11:54:19.559Z,75.53
2022-12-17T11:57:10.973Z,70.47
2022-12-17T12:00:05.308Z,75.23
2022-12-17T12:03:08.871Z,74.63
2022-12-17T12:06:11.474Z,75.67
2022-12-17T12:09:37.800Z,76.27
2022-12-17T12:12:55.650Z,63.03
2022-12-17T12:15:52.959Z,72.93
2022-12-17T12:18:44.826Z,72.00
2022-12-17T12:21:58.850Z,74.93
2022-12-17T12:25:16.395Z,73.63
2022-12-17T12:28:22.741Z,78.17
2022-12-17T12:31:19.040Z,72.17
2022-12-17T12:34:18.889Z,67.57
2022-12-17T12:37:06.159Z,70.00
2022-12-17T12:39:55.372Z,73.67
2022-12-17T12:42:53.830Z,68.60
2022-12-17T12:46:03.560Z,68.70
2022-12-17T12:48:55.546Z,79.00
2022-12-17T12:51:47.315Z,72.13
2022-12-17T12:54:59.573Z,77.03
2022-12-17T12:57:53.959Z,76.53
2022-12-17T13:01:06.346Z,66.57
2022-12-17T13:03:53.627Z,76.87
2022-12-17T13:06:45.466Z,74.43
2022-12-17T13:09:15.429Z,76.87
2022-12-17T13:12:10.485Z,73.70
2022-12-17T13:15:10.045Z,71.47
2022-12-17T13:17:57.779Z,68.67
2022-12-17T13:20:31.096Z,76.57
2022-12-17T13:23:10.103Z,77.43
2022-12-17T13:25:37.238Z,80.20
2022-12-17T13:28:04.309Z,64.57
2022-12-17T13:30:38.215Z,63.23
2022-12-17T13:33:24.971Z,68.90
2022-12-17T13:36:13.348Z,79.33
2022-12-17T13:38:45.834Z,66.00
2022-12-17T13:41:15.741Z,67.27
2022-12-17T13:43:51.499Z,68.07
2022-12-17T13:46:27.813Z,73.57
2022-12-17T13:48:58.975Z,72.70
2022-12-17T13:51:29.164Z,70.67
2022-12-17T13:53:58.390Z,65.10
2022-12-17T13:56:29.319Z,74.10
2022-12-17T13:58:59.999Z,65.87
2022-12-17T14:01:30.165Z,67.53
2022-12-17T14:04:07.358Z,62.13
2022-12-17T14:06:37.927Z,66.10
2022-12-17T14:09:05.357Z,65.70
2022-12-17T14:11:59.655Z,69.67
2022-12-17T14:14:38.623Z,72.10
2022-12-17T14:17:08.412Z,72.77
2022-12-17T14:19:36.631Z,65.10
2022-12-17T14:22:03.562Z,73.20
2022-12-17T14:24:30.545Z,72.03
2022-12-17T14:27:00.202Z,67.37
2022-12-17T14:29:30.012Z,75.13
2022-12-17T14:32:02.508Z,76.77
2022-12-17T14:34:40.237Z,77.00
2022-12-17T14:37:17.471Z,69.30
2022-12-17T14:39:46.850Z,67.50
2022-12-17T14:42:25.590Z,65.70
2022-12-17T14:44:57.201Z,64.10
2022-12-17T14:47:32.369Z,67.40
2022-12-17T14:50:32.991Z,67.40
2022-12-17T14:53:02.501Z,68.27
2022-12-17T14:55:55.475Z,63.93
2022-12-17T14:58:27.688Z,62.93
2022-12-17T15:01:09.175Z,66.83
2022-12-17T15:03:41.459Z,61.73
2022-12-17T15:06:11.210Z,65.77
2022-12-17T15:08:43.841Z,71.27
2022-12-17T15:11:12.942Z,66.83
2022-12-17T15:13:40.056Z,67.27
2022-12-17T15:16:07.225Z,71.37
2022-12-17T15:18:34.576Z,64.53
2022-12-17T15:21:02.272Z,65.00
2022-12-17T15:23:30.244Z,67.13
2022-12-17T15:25:57.185Z,73.77
2022-12-17T15:28:27.115Z,71.97
2022-12-17T15:30:54.189Z,69.53
2022-12-17T15:33:21.307Z,68.23
2022-12-17T15:35:50.962Z,63.97
2022-12-17T15:38:18.878Z,69.40
2022-12-17T15:40:45.701Z,63.50
2022-12-17T15:43:13.006Z,73.30
2022-12-17T15:45:45.274Z,62.13
2022-12-17T15:48:14.622Z,66.63
2022-12-17T15:50:41.359Z,64.73
2022-12-17T15:53:09.395Z,66.73
2022-12-17T15:55:37.614Z,66.20
2022-12-17T15:58:05.757Z,77.60
2022-12-17T16:00:32.674Z,67.87
2022-12-17T16:02:59.793Z,65.87
2022-12-17T16:05:26.620Z,66.83
2022-12-17T16:07:59.185Z,77.07
2022-12-17T16:10:26.013Z,79.03
2022-12-17T16:12:52.862Z,76.80
2022-12-17T16:15:19.575Z,81.90
2022-12-17T16:17:46.277Z,79.73
2022-12-17T16:20:15.635Z,71.93
2022-12-17T16:22:42.420Z,78.33
2022-12-17T16:25:09.346Z,74.03
2022-12-17T16:27:36.103Z,79.73
2022-12-17T16:30:05.550Z,80.10
2022-12-17T16:32:36.551Z,70.57
2022-12-17T16:35:04.951Z,78.90
2022-12-17T16:37:32.113Z,76.93
2022-12-17T16:40:00.408Z,74.03
2022-12-17T16:42:28.719Z,75.57
2022-12-17T16:44:55.483Z,73.27
2022-12-17T16:47:22.592Z,75.93
2022-12-17T16:49:51.016Z,77.30
2022-12-17T16:52:17.770Z,77.77
2022-12-17T16:54:44.511Z,72.20
2022-12-17T16:57:11.216Z,77.50
2022-12-17T16:59:38.117Z,70.07
2022-12-17T17:02:05.212Z,76.47
2022-12-17T17:04:32.069Z,76.17
2022-12-17T17:06:58.756Z,78.00
2022-12-17T17:09:29.121Z,76.17
2022-12-17T17:11:59.640Z,73.53
2022-12-17T17:14:26.814Z,82.03
2022-12-17T17:16:53.543Z,78.87
2022-12-17T17:19:21.210Z,85.63
2022-12-17T17:21:56.785Z,78.07
2022-12-17T17:24:25.512Z,86.20
2022-12-17T17:26:55.013Z,81.23
2022-12-17T17:29:22.384Z,80.07
2022-12-17T17:34:39.846Z,71.50
2022-12-17T17:37:07.055Z,81.53
2022-12-17T17:39:34.395Z,82.00
2022-12-17T17:42:01.696Z,78.37
2022-12-17T17:44:28.619Z,74.63
2022-12-17T17:46:55.416Z,93.27
2022-12-17T17:49:22.418Z,95.17
2022-12-17T17:52:11.731Z,86.50
2022-12-17T17:54:39.870Z,83.90
2022-12-17T17:57:07.030Z,91.27
2022-12-17T17:59:36.433Z,85.73
2022-12-17T18:02:03.648Z,89.53
2022-12-17T18:04:33.772Z,95.77
2022-12-17T18:09:52.746Z,104.57
2022-12-17T18:12:38.033Z,96.67
2022-12-17T18:15:20.596Z,88.20
2022-12-17T18:17:51.501Z,99.57
2022-12-17T18:20:18.372Z,92.20
2022-12-17T18:22:46.666Z,85.60
2022-12-17T18:25:14.550Z,86.87
2022-12-17T18:27:41.341Z,94.03
2022-12-17T18:30:11.708Z,87.33
2022-12-17T18:32:38.548Z,91.17
2022-12-17T18:35:05.941Z,94.70
2022-12-17T18:37:32.774Z,93.50
2022-12-17T18:39:59.526Z,98.10
2022-12-17T18:42:45.708Z,87.70
2022-12-17T18:45:12.427Z,89.00
2022-12-17T18:47:39.176Z,84.23
2022-12-17T18:50:06.743Z,96.03
2022-12-17T18:52:34.611Z,89.43
2022-12-17T18:55:01.378Z,77.33
2022-12-17T18:57:28.374Z,85.53
2022-12-17T18:59:55.140Z,85.40
2022-12-17T19:02:22.003Z,91.20
2022-12-17T19:04:48.944Z,84.33
2022-12-17T19:07:15.753Z,84.43
2022-12-17T19:09:42.450Z,85.33
2022-12-17T19:12:10.065Z,103.70
2022-12-17T19:14:39.730Z,91.43
2022-12-17T19:17:06.498Z,88.13
2022-12-17T19:19:33.585Z,80.07
2022-12-17T19:22:00.510Z,76.80
2022-12-17T19:24:27.465Z,70.23
2022-12-17T19:26:54.569Z,79.60
2022-12-17T19:29:24.337Z,85.27
2022-12-17T19:31:51.162Z,77.83
2022-12-17T19:34:19.338Z,120.63
2022-12-17T19:36:47.564Z,80.67
2022-12-17T19:39:17.762Z,75.30
2022-12-17T19:41:45.072Z,71.50
2022-12-17T19:44:16.946Z,87.60
2022-12-17T19:46:44.184Z,96.57
2022-12-17T19:49:13.331Z,77.17
2022-12-17T19:51:41.301Z,71.33
2022-12-17T19:54:09.394Z,91.47
2022-12-17T19:56:36.917Z,76.47
2022-12-17T19:59:09.675Z,75.83
2022-12-17T20:01:40.762Z,71.40
2022-12-17T20:04:07.546Z,70.60
2022-12-17T20:06:35.422Z,73.73
2022-12-17T20:09:04.790Z,76.63
2022-12-17T20:11:34.732Z,71.27
2022-12-17T20:14:04.714Z,61.07
2022-12-17T20:16:35.062Z,75.53
2022-12-17T20:19:04.114Z,74.80
2022-12-17T20:21:30.970Z,70.50
2022-12-17T20:23:57.786Z,73.43
2022-12-17T20:26:25.110Z,70.37
2022-12-17T20:28:51.956Z,80.90
2022-12-17T20:31:19.236Z,70.87
2022-12-17T20:33:45.973Z,79.67
2022-12-17T20:36:14.920Z,76.07
2022-12-17T20:38:43.284Z,72.00
2022-12-17T20:41:22.634Z,65.13
2022-12-17T20:43:50.456Z,71.30
2022-12-17T20:46:18.598Z,61.17
2022-12-17T20:48:47.235Z,64.70
2022-12-17T20:51:19.308Z,62.80
2022-12-17T20:53:47.420Z,80.17
2022-12-17T20:56:20.708Z,76.20
2022-12-17T20:58:47.754Z,93.43
2022-12-17T21:01:20.094Z,73.33
2022-12-17T21:03:51.340Z,74.77
2022-12-17T21:06:24.427Z,88.23
2022-12-17T21:08:53.323Z,70.17
2022-12-17T21:11:23.747Z,69.50
2022-12-17T21:13:51.087Z,66.97
2022-12-17T21:16:23.948Z,67.70
2022-12-17T21:18:51.013Z,60.97
2022-12-17T21:21:20.265Z,72.80
2022-12-17T21:23:48.946Z,68.90
2022-12-17T21:26:27.437Z,67.30
2022-12-17T21:28:56.462Z,65.80
2022-12-17T21:31:24.568Z,61.30
2022-12-17T21:33:58.731Z,63.37
2022-12-17T21:36:29.474Z,61.77
2022-12-17T21:38:56.550Z,61.60
2022-12-17T21:41:30.690Z,65.57
2022-12-17T21:44:00.557Z,62.87
2022-12-17T21:46:28.971Z,57.77
2022-12-17T21:49:00.616Z,66.53
2022-12-17T21:51:28.870Z,57.13
2022-12-17T21:53:58.800Z,60.20
2022-12-17T21:56:26.439Z,52.80
2022-12-17T21:58:59.477Z,64.57
2022-12-17T22:01:29.450Z,66.63
2022-12-17T22:03:58.367Z,70.37
2022-12-17T22:06:33.519Z,74.03
2022-12-17T22:09:07.482Z,61.00
2022-12-17T22:11:37.167Z,61.80
2022-12-17T22:14:09.439Z,67.33
2022-12-17T22:16:47.225Z,58.97
2022-12-17T22:19:17.260Z,62.87
2022-12-17T22:21:47.174Z,65.03
2022-12-17T22:24:19.248Z,63.07
2022-12-17T22:26:46.788Z,64.00
2022-12-17T22:29:33.787Z,67.83
2022-12-17T22:32:19.197Z,67.90
2022-12-17T22:36:23.460Z,60.20
2022-12-17T22:40:25.437Z,63.87
2022-12-17T22:44:30.355Z,60.93
2022-12-17T22:44:41.785Z,69.47
2022-12-17T22:46:16.570Z,58.00
2022-12-17T22:48:43.475Z,55.87
2022-12-17T22:51:18.949Z,69.47
2022-12-17T22:53:53.542Z,61.53
2022-12-17T22:56:42.153Z,60.67
2022-12-17T22:59:16.804Z,58.63
2022-12-17T23:01:52.932Z,60.57
2022-12-17T23:04:21.045Z,65.27
2022-12-17T23:06:47.945Z,54.03
2022-12-17T23:09:21.539Z,59.20
2022-12-17T23:11:51.989Z,67.57
2022-12-17T23:14:18.781Z,65.03
2022-12-17T23:16:45.835Z,59.03
2022-12-17T23:19:12.950Z,55.43
2022-12-17T23:21:42.658Z,58.43
2022-12-17T23:24:09.754Z,66.07
2022-12-17T23:26:37.376Z,65.37
2022-12-17T23:29:14.908Z,61.30
2022-12-17T23:31:44.424Z,58.00
2022-12-17T23:34:11.145Z,65.37
2022-12-17T23:36:38.004Z,56.70
2022-12-17T23:39:05.792Z,55.83
2022-12-17T23:41:32.894Z,59.17
2022-12-17T23:44:00.138Z,61.20
2022-12-17T23:46:29.450Z,60.60
2022-12-17T23:48:56.614Z,59.10
2022-12-17T23:51:25.395Z,58.27
2022-12-17T23:53:52.617Z,63.97
2022-12-17T23:56:25.625Z,66.20
2022-12-17T23:58:57.988Z,62.17
